createdAt,value
2018-12-30T00:00:06.774Z,80.60
2018-12-30T00:02:54.061Z,79.60
2018-12-30T00:05:23.783Z,80.40
2018-12-30T00:07:51.547Z,79.80
2018-12-30T00:10:40.768Z,79.60
2018-12-30T00:13:28.062Z,79.00
2018-12-30T00:15:55.838Z,79.00
2018-12-30T00:18:43.116Z,78.70
2018-12-30T00:21:13.015Z,77.60
2018-12-30T00:23:53.686Z,76.80
2018-12-30T00:26:40.921Z,76.20
2018-12-30T00:29:28.576Z,75.30
2018-12-30T00:32:16.060Z,74.60
2018-12-30T00:35:03.584Z,73.80
2018-12-30T00:37:50.859Z,73.60
2018-12-30T00:40:40.223Z,73.60
2018-12-30T00:43:27.424Z,73.10
2018-12-30T00:46:14.782Z,72.40
2018-12-30T00:49:02.004Z,71.30
2018-12-30T00:51:49.274Z,72.00
2018-12-30T00:54:36.508Z,73.40
2018-12-30T00:57:24.013Z,73.90
2018-12-30T01:00:11.553Z,74.00
2018-12-30T01:02:58.851Z,73.50
2018-12-30T01:05:46.286Z,73.40
2018-12-30T01:08:33.547Z,73.30
2018-12-30T01:11:21.180Z,72.80
2018-12-30T01:14:08.421Z,72.90
2018-12-30T01:16:55.608Z,72.50
2018-12-30T01:19:42.866Z,72.80
2018-12-30T01:22:23.671Z,73.00
2018-12-30T01:25:10.886Z,73.10
2018-12-30T01:27:58.133Z,72.60
2018-12-30T01:30:47.525Z,71.70
2018-12-30T01:33:15.252Z,70.70
2018-12-30T01:36:02.730Z,70.10
2018-12-30T01:38:49.977Z,69.00
2018-12-30T01:41:37.450Z,68.50
2018-12-30T01:44:05.191Z,68.50
2018-12-30T01:46:32.963Z,68.00
2018-12-30T01:49:00.717Z,67.90
2018-12-30T01:51:34.481Z,67.50
2018-12-30T01:53:58.234Z,66.30
2018-12-30T01:56:45.442Z,66.40
2018-12-30T01:59:32.834Z,66.40
2018-12-30T02:02:00.694Z,66.40
2018-12-30T02:04:28.743Z,65.30
2018-12-30T02:06:56.553Z,66.10
2018-12-30T02:09:24.300Z,65.70
2018-12-30T02:12:11.560Z,65.80
2018-12-30T02:14:58.876Z,65.10
2018-12-30T02:17:46.064Z,64.90
2018-12-30T02:20:35.382Z,63.90
2018-12-30T02:23:22.904Z,63.70
2018-12-30T02:26:10.139Z,63.90
2018-12-30T02:28:57.376Z,63.20
2018-12-30T02:31:44.629Z,62.90
2018-12-30T02:34:31.838Z,62.10
2018-12-30T02:37:19.129Z,62.60
2018-12-30T02:40:06.732Z,62.90
2018-12-30T02:42:53.944Z,62.60
2018-12-30T02:45:41.188Z,62.00
2018-12-30T02:48:28.657Z,61.60
2018-12-30T02:51:15.903Z,61.40
2018-12-30T02:54:03.866Z,60.40
2018-12-30T02:56:51.748Z,60.60
2018-12-30T02:59:19.467Z,59.80
2018-12-30T03:02:06.952Z,60.00
2018-12-30T03:04:34.684Z,59.80
2018-12-30T03:07:22.414Z,60.30
2018-12-30T03:10:11.556Z,60.70
2018-12-30T03:12:58.791Z,59.80
2018-12-30T03:15:46.329Z,59.80
2018-12-30T03:18:14.147Z,59.00
2018-12-30T03:21:01.374Z,59.80
2018-12-30T03:23:48.853Z,59.80
2018-12-30T03:26:16.593Z,59.10
2018-12-30T03:28:44.422Z,59.50
2018-12-30T03:31:32.465Z,58.90
2018-12-30T03:34:19.676Z,58.40
2018-12-30T03:37:07.073Z,57.70
2018-12-30T03:39:54.494Z,58.20
2018-12-30T03:42:55.878Z,57.70
2018-12-30T03:45:31.830Z,57.10
2018-12-30T03:48:19.244Z,57.30
2018-12-30T03:51:06.459Z,57.30
2018-12-30T03:53:53.674Z,57.20
2018-12-30T03:56:41.067Z,56.90
2018-12-30T03:59:20.975Z,56.70
2018-12-30T04:02:08.167Z,57.00
2018-12-30T04:04:55.662Z,56.00
2018-12-30T04:07:42.865Z,55.40
2018-12-30T04:10:30.103Z,54.20
2018-12-30T04:12:57.902Z,54.40
2018-12-30T04:15:45.122Z,54.70
2018-12-30T04:18:32.393Z,54.00
2018-12-30T04:21:19.858Z,53.60
2018-12-30T04:24:07.239Z,53.50
2018-12-30T04:26:54.535Z,54.00
2018-12-30T04:29:42.684Z,53.60
2018-12-30T04:32:29.924Z,53.60
2018-12-30T04:35:09.847Z,53.20
2018-12-30T04:37:57.432Z,52.60
2018-12-30T04:40:44.837Z,52.50
2018-12-30T04:43:32.255Z,53.30
2018-12-30T04:46:19.496Z,53.20
2018-12-30T04:49:06.725Z,53.40
2018-12-30T04:51:53.964Z,53.20
2018-12-30T04:54:41.220Z,52.80
2018-12-30T04:57:28.477Z,53.70
2018-12-30T04:59:56.259Z,53.40
2018-12-30T05:02:24.383Z,52.80
2018-12-30T05:04:52.130Z,52.70
2018-12-30T05:07:19.829Z,54.00
2018-12-30T05:10:01.967Z,53.80
2018-12-30T05:12:49.148Z,54.00
2018-12-30T05:15:36.360Z,55.80
2018-12-30T05:18:04.050Z,55.90
2018-12-30T05:20:31.802Z,56.10
2018-12-30T05:22:59.559Z,56.00
2018-12-30T05:25:27.301Z,57.20
2018-12-30T05:27:55.023Z,57.30
2018-12-30T05:30:22.809Z,57.30
2018-12-30T05:33:09.943Z,57.20
2018-12-30T05:35:57.155Z,57.70
2018-12-30T05:38:44.661Z,56.90
2018-12-30T05:41:31.835Z,56.60
2018-12-30T05:44:19.055Z,56.30
2018-12-30T05:47:08.538Z,55.80
2018-12-30T05:49:55.787Z,55.10
2018-12-30T05:52:42.992Z,54.90
2018-12-30T05:55:10.692Z,54.80
2018-12-30T05:57:58.111Z,55.30
2018-12-30T06:00:45.575Z,55.60
2018-12-30T06:03:32.745Z,54.70
2018-12-30T06:06:19.953Z,54.20
2018-12-30T06:09:07.369Z,54.50
2018-12-30T06:11:47.771Z,54.30
2018-12-30T06:14:15.480Z,53.60
2018-12-30T06:19:50.189Z,54.30
2018-12-30T06:22:37.428Z,53.40
2018-12-30T06:25:24.637Z,53.50
2018-12-30T06:28:11.845Z,54.00
2018-12-30T06:30:59.302Z,54.70
2018-12-30T06:33:46.477Z,54.20
2018-12-30T06:36:33.692Z,53.80
2018-12-30T06:39:20.901Z,53.80
2018-12-30T06:42:01.146Z,54.30
2018-12-30T06:44:48.719Z,54.10
2018-12-30T06:47:35.960Z,53.70
2018-12-30T06:50:23.242Z,54.20
2018-12-30T06:53:10.629Z,54.30
2018-12-30T06:55:57.862Z,53.90
2018-12-30T06:58:45.080Z,54.70
2018-12-30T07:01:32.342Z,53.90
2018-12-30T07:04:19.559Z,54.60
2018-12-30T07:07:06.864Z,55.10
2018-12-30T07:09:54.051Z,56.30
2018-12-30T07:12:41.281Z,56.90
2018-12-30T07:15:28.573Z,57.10
2018-12-30T07:17:56.299Z,57.00
2018-12-30T07:20:43.536Z,57.10
2018-12-30T07:23:30.759Z,57.50
2018-12-30T07:26:17.993Z,57.60
2018-12-30T07:29:05.213Z,58.00
2018-12-30T07:31:52.656Z,58.30
2018-12-30T07:34:39.878Z,58.90
2018-12-30T07:37:27.650Z,59.00
2018-12-30T07:40:07.838Z,59.00
2018-12-30T07:42:55.068Z,58.90
2018-12-30T07:45:42.290Z,59.10
2018-12-30T07:48:29.469Z,59.50
2018-12-30T07:51:16.902Z,59.00
2018-12-30T07:54:04.366Z,58.30
2018-12-30T07:56:51.803Z,58.50
2018-12-30T07:59:39.215Z,58.70
2018-12-30T08:02:26.455Z,59.10
2018-12-30T08:05:13.982Z,59.10
2018-12-30T08:08:01.295Z,58.40
2018-12-30T08:10:48.726Z,57.90
2018-12-30T08:13:36.490Z,58.10
2018-12-30T08:16:23.819Z,58.80
2018-12-30T08:19:11.092Z,59.00
2018-12-30T08:21:58.362Z,59.20
2018-12-30T08:24:47.000Z,59.30
2018-12-30T08:27:34.318Z,58.60
2018-12-30T08:30:21.550Z,57.80
2018-12-30T08:33:08.817Z,57.40
2018-12-30T08:35:56.093Z,57.80
2018-12-30T08:38:43.355Z,57.50
2018-12-30T08:41:23.718Z,56.80
2018-12-30T08:43:51.546Z,56.80
2018-12-30T08:46:40.830Z,57.90
2018-12-30T08:49:28.109Z,57.80
2018-12-30T08:52:15.839Z,57.00
2018-12-30T08:54:43.662Z,57.70
2018-12-30T08:57:31.111Z,57.70
2018-12-30T08:59:58.850Z,57.40
2018-12-30T09:02:26.628Z,57.40
2018-12-30T09:04:54.508Z,56.90
2018-12-30T09:07:44.102Z,57.40
2018-12-30T09:10:12.041Z,57.40
2018-12-30T09:12:59.300Z,57.50
2018-12-30T09:15:27.107Z,57.60
2018-12-30T09:17:54.909Z,57.60
2018-12-30T09:20:42.153Z,58.40
2018-12-30T09:23:37.097Z,58.80
2018-12-30T09:25:59.440Z,58.60
2018-12-30T09:28:46.776Z,59.00
2018-12-30T09:31:34.339Z,59.40
2018-12-30T09:34:02.165Z,59.30
2018-12-30T09:36:29.955Z,59.40
2018-12-30T09:38:57.821Z,59.60
2018-12-30T09:41:25.721Z,59.50
2018-12-30T09:44:13.004Z,59.80
2018-12-30T09:47:00.777Z,59.60
2018-12-30T09:49:30.021Z,59.50
2018-12-30T09:51:58.839Z,60.00
2018-12-30T09:54:26.872Z,60.00
2018-12-30T09:56:54.765Z,59.70
2018-12-30T09:59:22.731Z,60.00
2018-12-30T10:02:10.270Z,59.70
2018-12-30T10:04:57.877Z,59.00
2018-12-30T10:07:45.448Z,58.80
2018-12-30T10:10:13.359Z,59.10
2018-12-30T10:13:01.553Z,59.30
2018-12-30T10:15:29.395Z,58.90
2018-12-30T10:18:16.982Z,59.10
2018-12-30T10:21:04.259Z,59.30
2018-12-30T10:23:53.247Z,59.80
2018-12-30T10:26:21.133Z,59.70
2018-12-30T10:28:49.333Z,59.70
2018-12-30T10:31:36.839Z,59.70
2018-12-30T10:34:04.674Z,59.90
2018-12-30T10:36:32.450Z,59.80
2018-12-30T10:39:12.417Z,59.80
2018-12-30T10:41:59.691Z,60.00
2018-12-30T10:44:47.228Z,59.80
2018-12-30T10:47:34.611Z,59.80
2018-12-30T10:50:21.955Z,60.30
2018-12-30T10:53:09.370Z,59.60
2018-12-30T10:55:56.955Z,59.20
2018-12-30T10:58:44.216Z,59.00
2018-12-30T11:01:31.472Z,58.40
2018-12-30T11:04:18.777Z,58.30
2018-12-30T11:07:06.392Z,58.00
2018-12-30T11:09:34.155Z,58.20
2018-12-30T11:12:02.002Z,58.20
2018-12-30T11:14:29.878Z,58.70
2018-12-30T11:17:17.208Z,58.70
2018-12-30T11:19:45.009Z,58.40
2018-12-30T11:22:12.880Z,58.50
2018-12-30T11:24:40.811Z,58.30
2018-12-30T11:27:08.656Z,58.70
2018-12-30T11:29:36.525Z,58.80
2018-12-30T11:32:06.401Z,58.90
2018-12-30T11:34:53.713Z,58.90
2018-12-30T11:37:33.910Z,58.50
2018-12-30T11:40:21.438Z,58.80
2018-12-30T11:43:08.959Z,58.80
2018-12-30T11:45:56.257Z,58.20
2018-12-30T11:48:43.538Z,57.60
2018-12-30T11:51:31.261Z,57.60
2018-12-30T11:54:18.983Z,58.20
2018-12-30T11:57:06.377Z,58.20
2018-12-30T11:59:53.770Z,58.20
2018-12-30T12:02:41.137Z,58.00
2018-12-30T12:05:28.496Z,58.70
2018-12-30T12:08:15.769Z,59.40
2018-12-30T12:10:43.564Z,59.70
2018-12-30T12:13:11.805Z,60.00
2018-12-30T12:16:00.226Z,60.00
2018-12-30T12:18:47.790Z,59.70
2018-12-30T12:21:35.054Z,59.90
2018-12-30T12:24:24.441Z,60.10
2018-12-30T12:27:11.806Z,60.40
2018-12-30T12:29:39.664Z,61.30
2018-12-30T12:32:07.502Z,61.10
2018-12-30T12:34:55.010Z,61.00
2018-12-30T12:37:42.652Z,61.20
2018-12-30T12:40:30.007Z,61.20
2018-12-30T12:43:17.544Z,61.20
2018-12-30T12:46:06.252Z,61.60
2018-12-30T12:48:54.872Z,60.90
2018-12-30T12:51:42.591Z,60.90
2018-12-30T12:54:32.239Z,61.30
2018-12-30T12:57:19.274Z,61.50
2018-12-30T13:00:09.075Z,61.60
2018-12-30T13:02:37.071Z,61.60
2018-12-30T13:05:24.607Z,61.60
2018-12-30T13:08:11.970Z,61.70
2018-12-30T13:10:59.284Z,61.10
2018-12-30T13:13:46.654Z,61.60
2018-12-30T13:16:34.091Z,61.50
2018-12-30T13:19:21.516Z,61.50
2018-12-30T13:22:08.861Z,61.70
2018-12-30T13:24:56.501Z,61.30
2018-12-30T13:27:43.981Z,61.60
2018-12-30T13:30:34.090Z,62.60
2018-12-30T13:33:02.103Z,61.30
2018-12-30T13:35:30.027Z,62.10
2018-12-30T13:37:57.947Z,61.50
2018-12-30T13:40:25.895Z,61.70
2018-12-30T13:42:54.322Z,61.50
2018-12-30T13:45:22.288Z,61.60
2018-12-30T13:47:50.254Z,61.80
2018-12-30T13:50:37.808Z,61.80
2018-12-30T13:53:05.697Z,62.50
2018-12-30T13:55:33.572Z,61.80
2018-12-30T13:58:01.392Z,61.60
2018-12-30T14:00:48.728Z,61.10
2018-12-30T14:03:16.611Z,61.20
2018-12-30T14:05:44.588Z,61.00
2018-12-30T14:08:31.846Z,61.10
2018-12-30T14:11:19.385Z,60.60
2018-12-30T14:14:06.901Z,61.10
2018-12-30T14:16:54.400Z,61.60
2018-12-30T14:19:22.251Z,61.80
2018-12-30T14:22:09.564Z,61.60
2018-12-30T14:24:56.859Z,61.40
2018-12-30T14:30:32.990Z,62.40
2018-12-30T14:33:22.420Z,62.70
2018-12-30T14:36:02.973Z,61.80
2018-12-30T14:38:30.849Z,62.40
2018-12-30T14:40:58.765Z,62.10
2018-12-30T14:43:46.195Z,62.30
2018-12-30T14:46:34.967Z,62.10
2018-12-30T14:49:22.921Z,61.60
2018-12-30T14:52:10.195Z,62.00
2018-12-30T14:55:03.603Z,61.90
2018-12-30T14:57:46.765Z,62.20
2018-12-30T15:00:14.681Z,62.20
2018-12-30T15:02:42.653Z,62.60
2018-12-30T15:05:30.412Z,62.80
2018-12-30T15:07:58.436Z,62.90
2018-12-30T15:10:45.824Z,63.10
2018-12-30T15:13:33.182Z,63.20
2018-12-30T15:16:00.995Z,62.50
2018-12-30T15:18:28.908Z,63.20
2018-12-30T15:20:56.820Z,63.20
2018-12-30T15:23:44.196Z,63.10
2018-12-30T15:26:12.116Z,63.60
2018-12-30T15:28:59.507Z,63.30
2018-12-30T15:31:46.987Z,63.20
2018-12-30T15:34:27.311Z,63.40
2018-12-30T15:37:14.744Z,63.50
2018-12-30T15:39:42.613Z,63.40
2018-12-30T15:42:30.301Z,62.60
2018-12-30T15:45:17.638Z,62.10
2018-12-30T15:48:04.956Z,60.70
2018-12-30T15:50:52.258Z,60.00
2018-12-30T15:53:20.239Z,60.60
2018-12-30T15:56:07.597Z,60.00
2018-12-30T15:58:35.506Z,59.80
2018-12-30T16:01:22.858Z,60.00
2018-12-30T16:03:50.690Z,60.10
2018-12-30T16:06:19.553Z,60.20
2018-12-30T16:08:48.604Z,60.50
2018-12-30T16:11:36.000Z,60.80
2018-12-30T16:14:23.778Z,59.80
2018-12-30T16:17:12.225Z,59.90
2018-12-30T16:19:40.215Z,60.30
2018-12-30T16:22:08.115Z,60.60
2018-12-30T16:24:55.476Z,60.70
2018-12-30T16:27:42.876Z,60.60
2018-12-30T16:30:30.476Z,60.90
2018-12-30T16:33:17.820Z,60.70
2018-12-30T16:36:05.189Z,60.80
2018-12-30T16:38:52.926Z,61.10
2018-12-30T16:41:40.281Z,61.60
2018-12-30T16:44:27.632Z,61.60
2018-12-30T16:46:55.574Z,61.70
2018-12-30T16:49:42.896Z,62.20
2018-12-30T16:52:10.859Z,62.00
2018-12-30T16:54:58.182Z,62.10
2018-12-30T16:57:39.176Z,62.40
2018-12-30T17:00:26.588Z,61.00
2018-12-30T17:03:14.150Z,61.50
2018-12-30T17:05:42.096Z,61.50
2018-12-30T17:08:10.287Z,61.20
2018-12-30T17:10:38.333Z,61.30
2018-12-30T17:13:06.233Z,61.40
2018-12-30T17:15:53.628Z,61.20
2018-12-30T17:18:41.039Z,61.10
2018-12-30T17:21:28.940Z,62.30
2018-12-30T17:23:56.815Z,62.40
2018-12-30T17:26:24.618Z,62.90
2018-12-30T17:28:52.561Z,63.30
2018-12-30T17:31:33.644Z,63.20
2018-12-30T17:34:20.986Z,63.20
2018-12-30T17:37:08.298Z,63.00
2018-12-30T17:39:55.974Z,63.50
2018-12-30T17:42:23.850Z,63.30
2018-12-30T17:45:11.685Z,63.60
2018-12-30T17:47:59.511Z,63.90
2018-12-30T17:50:46.836Z,63.80
2018-12-30T17:53:34.932Z,64.00
2018-12-30T17:56:22.253Z,64.60
2018-12-30T17:59:09.639Z,64.60
2018-12-30T18:01:57.071Z,64.90
2018-12-30T18:04:44.642Z,64.20
2018-12-30T18:07:32.189Z,63.80
2018-12-30T18:10:00.189Z,63.60
2018-12-30T18:12:28.094Z,63.70
2018-12-30T18:14:55.926Z,63.80
2018-12-30T18:17:23.871Z,63.70
2018-12-30T18:19:51.706Z,62.90
2018-12-30T18:22:19.741Z,62.70
2018-12-30T18:24:47.604Z,63.00
2018-12-30T18:27:15.546Z,63.10
2018-12-30T18:29:44.244Z,62.60
2018-12-30T18:32:12.399Z,62.50
2018-12-30T18:34:40.287Z,63.60
2018-12-30T18:37:08.166Z,64.10
2018-12-30T18:39:36.112Z,64.20
2018-12-30T18:42:23.740Z,63.80
2018-12-30T18:45:11.167Z,64.20
2018-12-30T18:47:59.009Z,63.40
2018-12-30T18:50:46.452Z,63.90
2018-12-30T18:53:33.979Z,64.00
2018-12-30T18:56:06.730Z,64.50
2018-12-30T18:58:31.761Z,65.30
2018-12-30T19:01:19.191Z,65.60
2018-12-30T19:03:47.107Z,65.50
2018-12-30T19:06:15.175Z,65.10
2018-12-30T19:08:43.089Z,65.10
2018-12-30T19:11:54.426Z,65.10
2018-12-30T19:14:42.201Z,64.70
2018-12-30T19:17:10.070Z,65.60
2018-12-30T19:19:57.731Z,65.10
2018-12-30T19:22:45.073Z,65.10
2018-12-30T19:25:32.464Z,65.20
2018-12-30T19:28:19.923Z,65.60
2018-12-30T19:30:47.847Z,65.80
2018-12-30T19:33:35.243Z,66.20
2018-12-30T19:36:22.664Z,66.20
2018-12-30T19:41:43.860Z,66.50
2018-12-30T19:44:11.870Z,66.50
2018-12-30T19:46:39.820Z,66.40
2018-12-30T19:49:27.565Z,66.90
2018-12-30T19:51:55.571Z,67.20
2018-12-30T19:54:42.880Z,67.70
2018-12-30T19:57:30.738Z,68.20
2018-12-30T19:59:58.668Z,67.30
2018-12-30T20:02:45.969Z,67.40
2018-12-30T20:05:33.603Z,67.00
2018-12-30T20:08:21.239Z,67.00
2018-12-30T20:11:08.715Z,66.80
2018-12-30T20:13:49.340Z,69.10
2018-12-30T20:16:17.596Z,69.00
2018-12-30T20:19:05.155Z,68.50
2018-12-30T20:21:52.575Z,68.50
2018-12-30T20:24:20.546Z,68.70
2018-12-30T20:27:08.254Z,68.90
2018-12-30T20:29:36.196Z,69.20
2018-12-30T20:32:23.575Z,69.20
2018-12-30T20:35:11.379Z,69.10
2018-12-30T20:37:39.288Z,68.80
2018-12-30T20:40:07.266Z,69.80
2018-12-30T20:42:54.635Z,69.30
2018-12-30T20:45:41.983Z,71.50
2018-12-30T20:48:29.393Z,73.60
2018-12-30T20:50:57.257Z,74.10
2018-12-30T20:53:44.870Z,74.70
2018-12-30T20:56:12.800Z,74.80
2018-12-30T20:59:00.112Z,75.40
2018-12-30T21:01:47.792Z,76.10
2018-12-30T21:04:35.364Z,75.70
2018-12-30T21:07:23.613Z,76.30
2018-12-30T21:10:11.011Z,76.10
2018-12-30T21:12:51.763Z,77.10
2018-12-30T21:15:39.016Z,77.60
2018-12-30T21:18:26.780Z,78.40
2018-12-30T21:21:14.495Z,78.40
2018-12-30T21:24:01.839Z,80.20
2018-12-30T21:26:49.452Z,81.10
2018-12-30T21:29:17.472Z,82.10
2018-12-30T21:31:45.515Z,82.50
2018-12-30T21:34:32.892Z,82.90
2018-12-30T21:37:20.276Z,83.10
2018-12-30T21:39:48.186Z,82.80
2018-12-30T21:42:16.082Z,83.20
2018-12-30T21:45:04.034Z,83.40
2018-12-30T21:47:51.336Z,83.60
2018-12-30T21:50:40.517Z,82.60
2018-12-30T21:53:27.855Z,82.60
2018-12-30T21:56:15.169Z,81.70
2018-12-30T21:59:02.652Z,81.90
2018-12-30T22:01:50.030Z,82.10
2018-12-30T22:04:37.349Z,81.70
2018-12-30T22:07:24.719Z,82.70
2018-12-30T22:09:52.536Z,81.80
2018-12-30T22:12:20.452Z,81.70
2018-12-30T22:14:48.311Z,81.60
2018-12-30T22:17:16.303Z,80.90
2018-12-30T22:19:44.276Z,81.20
2018-12-30T22:22:12.207Z,80.70
2018-12-30T22:24:59.510Z,80.90
2018-12-30T22:27:46.962Z,80.30
2018-12-30T22:30:14.822Z,80.80
2018-12-30T22:33:02.224Z,80.40
2018-12-30T22:35:30.286Z,79.70
2018-12-30T22:37:58.086Z,80.10
2018-12-30T22:40:25.968Z,80.20
2018-12-30T22:43:14.656Z,80.10
2018-12-30T22:46:02.500Z,81.00
2018-12-30T22:48:50.859Z,81.60
2018-12-30T22:51:18.815Z,81.40
2018-12-30T22:54:06.134Z,81.90
2018-12-30T22:56:34.006Z,81.50
2018-12-30T22:59:02.509Z,81.60
2018-12-30T23:01:35.340Z,82.70
2018-12-30T23:04:03.278Z,83.30
2018-12-30T23:06:31.307Z,83.70
2018-12-30T23:08:59.116Z,83.50
2018-12-30T23:11:46.493Z,83.20
2018-12-30T23:14:33.841Z,82.40
2018-12-30T23:17:21.885Z,81.90
2018-12-30T23:20:09.462Z,82.60
2018-12-30T23:22:56.977Z,80.50
2018-12-30T23:25:45.927Z,81.20
2018-12-30T23:28:33.549Z,81.60
2018-12-30T23:31:20.882Z,81.90
2018-12-30T23:34:08.224Z,81.20
2018-12-30T23:36:55.609Z,80.10
2018-12-30T23:39:42.887Z,81.30
2018-12-30T23:42:11.023Z,80.00
2018-12-30T23:44:58.311Z,80.90
2018-12-30T23:47:45.847Z,80.70
2018-12-30T23:50:33.163Z,80.50
2018-12-30T23:53:01.295Z,81.70
2018-12-30T23:55:49.907Z,81.60
2018-12-30T23:58:37.224Z,81.30
